Time;durP1;ratioP1;P1;durP2;ratioP2;P2;SDS_P1;SDS_P2;PMS_P1;PMS_P2;Temp;Humidity;BMP_temperature;BMP_pressure;BME280_temperature;BME280_humidity;BME280_pressure;Samples;Min_cycle;Max_cycle;Signal;HPM_P1;HPM_P2
2021/07/31 00:01:06;;;;;;;7.82;2.80;;;;;;;15.91;74.85;100532.84;5116282;28;20448;-36
2021/07/31 00:03:31;;;;;;;6.45;2.63;;;;;;;15.89;74.35;100535.00;5115281;28;20020;-36
2021/07/31 00:05:57;;;;;;;9.20;2.35;;;;;;;15.83;74.47;100519.75;5114567;28;20039;-36
2021/07/31 00:08:22;;;;;;;10.75;2.80;;;;;;;15.92;74.82;100529.00;5115747;28;20034;-36
2021/07/31 00:10:48;;;;;;;11.25;2.47;;;;;;;15.87;75.04;100532.56;5115797;28;20053;-36
2021/07/31 00:13:13;;;;;;;11.48;2.75;;;;;;;15.83;74.52;100515.09;5115409;28;20019;-36
2021/07/31 00:15:38;;;;;;;6.28;2.50;;;;;;;15.90;75.49;100525.72;5115393;28;20043;-36
2021/07/31 00:18:04;;;;;;;9.68;2.45;;;;;;;15.86;75.84;100521.91;5115190;28;20448;-36
2021/07/31 00:20:29;;;;;;;8.98;3.10;;;;;;;15.89;75.76;100522.19;5114959;28;20023;-36
2021/07/31 00:22:55;;;;;;;8.70;2.37;;;;;;;15.91;75.79;100524.66;5114888;28;20031;-36
2021/07/31 00:25:20;;;;;;;8.55;2.75;;;;;;;15.89;75.54;100522.19;5115457;28;20352;-36
2021/07/31 00:27:45;;;;;;;10.27;2.80;;;;;;;15.81;75.30;100511.00;5115861;28;20393;-36
2021/07/31 00:30:11;;;;;;;8.05;2.50;;;;;;;15.85;76.06;100525.72;5115157;28;20027;-36
2021/07/31 00:32:36;;;;;;;;;;;;;;;15.94;75.34;100519.44;5115434;28;20069;-36
2021/07/31 00:35:01;;;;;;;7.23;2.53;;;;;;;15.90;75.69;100525.72;5115417;28;19911;-36
2021/07/31 00:37:27;;;;;;;8.32;2.65;;;;;;;15.90;75.78;100523.00;5115323;28;20307;-36
2021/07/31 00:39:53;;;;;;;8.40;2.37;;;;;;;15.90;75.79;100523.81;5114597;27;20027;-36
2021/07/31 00:42:19;;;;;;;9.02;2.90;;;;;;;15.92;75.79;100520.84;5115374;28;20265;-36
2021/07/31 00:44:44;;;;;;;7.75;2.20;;;;;;;15.93;76.10;100531.47;5114443;28;20022;-36
2021/07/31 00:47:09;;;;;;;8.82;2.83;;;;;;;15.85;76.21;100515.63;5114825;28;20020;-36
2021/07/31 00:49:35;;;;;;;;;;;;;;;15.97;75.46;100523.56;5114800;28;20023;-36
2021/07/31 00:52:03;;;;;;;7.65;2.45;;;;;;;15.94;76.09;100530.34;5114943;28;20334;-36
2021/07/31 00:54:28;;;;;;;8.90;2.50;;;;;;;15.94;76.33;100518.63;5114882;28;20020;-36
2021/07/31 00:56:54;;;;;;;9.18;2.80;;;;;;;15.90;75.67;100517.53;5114280;28;20459;-36
2021/07/31 00:59:20;;;;;;;10.52;2.97;;;;;;;15.97;76.44;100526.28;5114319;28;20027;-36
2021/07/31 01:01:46;;;;;;;9.68;2.83;;;;;;;15.89;76.13;100515.91;5113400;28;20402;-37
2021/07/31 01:04:11;;;;;;;10.65;3.22;;;;;;;15.94;75.80;100524.91;5113434;28;20027;-36
2021/07/31 01:06:37;;;;;;;14.07;3.28;;;;;;;15.93;76.01;100519.72;5114410;28;20344;-36
2021/07/31 01:09:02;;;;;;;7.75;2.60;;;;;;;15.90;76.44;100518.34;5114874;28;20460;-36
2021/07/31 01:11:27;;;;;;;11.23;2.72;;;;;;;15.94;75.94;100526.81;5114052;28;20027;-36
2021/07/31 01:13:53;;;;;;;8.20;2.53;;;;;;;15.92;76.29;100515.38;5113917;28;20027;-36
2021/07/31 01:16:19;;;;;;;6.53;2.47;;;;;;;15.91;76.46;100521.94;5114722;28;20027;-36
2021/07/31 01:18:45;;;;;;;11.85;2.65;;;;;;;15.88;76.45;100514.28;5114231;28;20110;-36
2021/07/31 01:21:32;;;;;;;8.10;2.83;;;;;;;15.86;76.49;100511.00;5114854;28;20027;-36
2021/07/31 01:23:57;;;;;;;8.45;2.50;;;;;;;15.83;76.66;100512.38;5114704;28;20019;-36
2021/07/31 01:26:22;;;;;;;;;;;;;;;15.92;75.68;100526.28;5114568;28;20466;-36
2021/07/31 01:28:48;;;;;;;10.43;3.15;;;;;;;15.86;76.04;100514.56;5114490;28;19907;-36
2021/07/31 01:31:13;;;;;;;8.77;2.57;;;;;;;15.81;76.08;100492.75;5114424;28;20035;-36
2021/07/31 01:33:38;;;;;;;9.27;3.20;;;;;;;15.83;76.34;100497.94;5114019;28;20277;-36
2021/07/31 01:36:06;;;;;;;12.32;3.22;;;;;;;15.91;76.11;100511.84;5113975;28;20447;-36
2021/07/31 01:38:31;;;;;;;7.90;2.70;;;;;;;15.90;75.90;100506.63;5113377;28;20024;-36
2021/07/31 01:40:56;;;;;;;;;;;;;;;15.94;75.22;100511.28;5114221;28;20374;-36
2021/07/31 01:43:22;;;;;;;8.77;2.67;;;;;;;15.92;75.62;100509.94;5112304;28;19908;-36
2021/07/31 01:45:47;;;;;;;;;;;;;;;15.98;75.17;100514.28;5114049;27;20129;-36
2021/07/31 01:48:12;;;;;;;8.40;2.43;;;;;;;15.92;75.86;100515.38;5114019;28;19998;-36
2021/07/31 01:50:40;;;;;;;6.57;2.83;;;;;;;15.83;75.60;100498.75;5113889;28;20289;-36
2021/07/31 01:53:05;;;;;;;7.60;2.35;;;;;;;15.89;75.65;100511.28;5114390;28;20076;-36
2021/07/31 01:55:30;;;;;;;8.23;2.60;;;;;;;15.82;75.48;100494.41;5113702;28;20449;-36
2021/07/31 01:57:56;;;;;;;9.90;2.90;;;;;;;15.90;75.22;100509.38;5113518;28;20520;-36
2021/07/31 02:00:21;;;;;;;11.82;3.20;;;;;;;15.89;76.15;100510.47;5113524;28;20427;-36
2021/07/31 02:02:46;;;;;;;11.90;3.00;;;;;;;15.81;75.73;100500.09;5113556;28;20430;-36
2021/07/31 02:05:12;;;;;;;9.03;3.17;;;;;;;15.77;76.40;100501.75;5113809;28;20336;-36
2021/07/31 02:07:37;;;;;;;9.73;3.20;;;;;;;15.82;76.25;100505.31;5112342;28;20035;-36
2021/07/31 02:10:03;;;;;;;10.73;2.60;;;;;;;15.87;76.27;100518.13;5113922;28;20238;-36
2021/07/31 02:12:28;;;;;;;8.48;2.95;;;;;;;15.86;76.30;100513.72;5113333;28;20451;-36
2021/07/31 02:14:53;;;;;;;7.03;2.73;;;;;;;15.86;76.45;100516.44;5119537;28;20048;-36
2021/07/31 02:17:18;;;;;;;11.00;3.03;;;;;;;15.85;76.76;100504.72;5120161;27;20258;-36
2021/07/31 02:19:44;;;;;;;8.17;2.93;;;;;;;15.82;76.15;100504.50;5118931;28;20035;-36
2021/07/31 02:22:09;;;;;;;10.43;2.73;;;;;;;15.83;76.24;100503.38;5119979;27;20268;-36
2021/07/31 02:24:34;;;;;;;9.48;2.95;;;;;;;15.81;76.57;100497.38;5118463;28;20459;-36
2021/07/31 02:27:00;;;;;;;9.40;3.40;;;;;;;15.82;76.60;100493.59;5120381;27;20023;-36
2021/07/31 02:29:25;;;;;;;7.40;3.00;;;;;;;15.81;76.80;100497.38;5120449;27;20345;-36
2021/07/31 02:31:50;;;;;;;9.47;3.20;;;;;;;15.81;76.61;100503.66;5119814;27;20269;-36
2021/07/31 02:34:16;;;;;;;10.10;2.83;;;;;;;15.77;76.72;100499.03;5120652;27;20027;-36
2021/07/31 02:36:41;;;;;;;10.87;3.33;;;;;;;15.79;77.30;100500.38;5120544;27;20257;-36
2021/07/31 02:39:06;;;;;;;9.73;3.22;;;;;;;15.78;76.96;100503.41;5119883;27;20019;-37
2021/07/31 02:41:31;;;;;;;12.47;3.47;;;;;;;15.71;76.99;100479.13;5120159;27;20389;-36
2021/07/31 02:43:57;;;;;;;12.60;2.93;;;;;;;15.74;77.05;100477.75;5119650;28;20608;-36
2021/07/31 02:46:22;;;;;;;8.43;2.92;;;;;;;15.79;77.05;100496.84;5119612;27;20068;-36
2021/07/31 02:48:47;;;;;;;;;;;;;;;15.85;76.31;100501.19;5120266;28;20024;-36
2021/07/31 02:51:13;;;;;;;6.77;2.47;;;;;;;15.63;76.91;100474.22;5120276;27;20254;-36
2021/07/31 02:53:39;;;;;;;9.23;3.15;;;;;;;15.76;77.28;100505.56;5119587;27;20039;-36
2021/07/31 02:56:05;;;;;;;10.05;3.25;;;;;;;15.74;76.69;100489.47;5119932;28;20106;-36
2021/07/31 02:58:30;;;;;;;9.30;3.17;;;;;;;15.62;77.34;100478.84;5119481;27;20500;-36
2021/07/31 03:00:56;;;;;;;13.43;3.38;;;;;;;15.79;77.10;100508.56;5119980;27;20020;-36
2021/07/31 03:03:21;;;;;;;7.35;3.30;;;;;;;15.68;76.90;100480.50;5119792;27;20069;-36
2021/07/31 03:05:57;;;;;;;9.32;3.53;;;;;;;15.76;77.00;100494.66;5119903;28;20358;-36
2021/07/31 03:08:23;;;;;;;8.50;2.65;;;;;;;15.68;76.79;100477.78;5119664;27;20523;-36
2021/07/31 03:10:51;;;;;;;;;;;;;;;15.83;76.39;100490.56;5120313;27;20011;-36
2021/07/31 03:13:17;;;;;;;8.27;3.00;;;;;;;15.72;76.80;100478.06;5119739;27;19908;-36
2021/07/31 03:15:42;;;;;;;;;;;;;;;15.80;76.42;100490.28;5120577;28;20560;-36
2021/07/31 03:18:07;;;;;;;8.87;3.30;;;;;;;15.76;76.52;100489.19;5119274;27;19912;-36
2021/07/31 03:20:33;;;;;;;8.30;3.10;;;;;;;15.76;77.66;100490.00;5119942;28;20028;-36
2021/07/31 03:22:58;;;;;;;8.43;3.10;;;;;;;15.72;78.96;100499.03;5119770;27;20284;-36
2021/07/31 03:25:23;;;;;;;9.10;2.77;;;;;;;15.64;79.35;100494.94;5118016;28;20605;-36
2021/07/31 03:27:48;;;;;;;6.97;2.70;;;;;;;15.44;80.29;100472.03;5116452;28;20034;-36
2021/07/31 03:30:14;;;;;;;8.90;3.07;;;;;;;15.35;80.58;100481.81;5116855;28;20250;-36
2021/07/31 03:32:39;;;;;;;8.95;3.05;;;;;;;15.35;80.46;100484.53;5116835;28;20016;-36
2021/07/31 03:35:05;;;;;;;8.87;3.13;;;;;;;15.40;81.28;100503.63;5116427;28;20468;-36
2021/07/31 03:37:30;;;;;;;10.73;3.63;;;;;;;15.35;81.70;100500.06;5116402;28;20091;-36
2021/07/31 03:39:55;;;;;;;10.32;4.30;;;;;;;15.35;82.12;100500.06;5116083;28;20046;-36
2021/07/31 03:42:21;;;;;;;6.57;3.07;;;;;;;15.23;82.44;100494.09;5116292;28;20090;-36
2021/07/31 03:44:46;;;;;;;10.45;4.05;;;;;;;15.30;83.00;100517.22;5115951;28;20031;-36
2021/07/31 03:47:11;;;;;;;8.23;3.65;;;;;;;15.26;83.39;100507.97;5116449;28;20522;-36
2021/07/31 03:49:36;;;;;;;9.67;4.27;;;;;;;15.16;83.45;100506.03;5116174;27;20406;-36
2021/07/31 03:52:02;;;;;;;11.33;3.60;;;;;;;15.25;83.34;100528.13;5115806;27;20273;-36
2021/07/31 03:54:27;;;;;;;10.00;3.83;;;;;;;15.21;83.12;100524.28;5115616;28;20020;-36
2021/07/31 03:56:53;;;;;;;9.73;3.80;;;;;;;15.19;83.62;100530.03;5116179;28;20019;-36
2021/07/31 03:59:18;;;;;;;8.43;4.07;;;;;;;15.23;83.39;100540.38;5115809;28;20059;-36
2021/07/31 04:01:44;;;;;;;6.53;3.20;;;;;;;15.19;83.73;100538.19;5116079;28;20245;-36
2021/07/31 04:04:09;;;;;;;6.20;3.47;;;;;;;15.13;83.27;100533.81;5115465;28;20265;-36
2021/07/31 04:06:34;;;;;;;7.27;3.67;;;;;;;15.16;83.57;100533.28;5116550;28;20022;-36
2021/07/31 04:08:59;;;;;;;7.10;3.43;;;;;;;15.19;83.03;100535.47;5115874;28;20725;-36
2021/07/31 04:11:25;;;;;;;8.67;4.20;;;;;;;15.06;82.70;100527.81;5115615;28;20019;-36
2021/07/31 04:13:50;;;;;;;9.40;4.30;;;;;;;15.13;82.94;100539.28;5115138;28;20294;-36
2021/07/31 04:16:16;;;;;;;11.20;4.43;;;;;;;15.13;83.67;100543.91;5116318;28;20131;-36
2021/07/31 04:18:41;;;;;;;10.23;4.05;;;;;;;15.11;83.30;100527.81;5115516;28;20385;-36
2021/07/31 04:21:07;;;;;;;11.20;4.17;;;;;;;14.98;83.65;100519.31;5115839;28;20080;-36
2021/07/31 04:23:33;;;;;;;10.93;4.57;;;;;;;15.09;83.77;100543.63;5115335;28;20352;-36
2021/07/31 04:25:59;;;;;;;9.43;3.95;;;;;;;14.93;83.32;100525.56;5115647;28;20027;-36
2021/07/31 04:28:24;;;;;;;9.93;3.88;;;;;;;15.08;83.52;100544.72;5115787;28;20042;-36
2021/07/31 04:30:49;;;;;;;9.38;4.30;;;;;;;15.04;84.25;100542.78;5115642;28;20042;-36
2021/07/31 04:33:15;;;;;;;10.03;4.37;;;;;;;14.81;83.85;100522.28;5115113;28;20471;-36
2021/07/31 04:35:40;;;;;;;11.57;4.05;;;;;;;14.94;84.07;100540.84;5115685;28;20281;-36
2021/07/31 04:38:05;;;;;;;4.97;3.40;;;;;;;15.08;83.96;100560.19;5113928;28;20060;-36
2021/07/31 04:40:31;;;;;;;7.35;4.00;;;;;;;15.03;84.66;100557.47;5115049;28;20106;-36
2021/07/31 04:42:56;;;;;;;8.37;3.90;;;;;;;15.05;84.75;100564.28;5114693;28;20199;-36
2021/07/31 04:45:21;;;;;;;8.37;4.00;;;;;;;15.06;84.02;100562.38;5114730;28;20577;-36
2021/07/31 04:47:47;;;;;;;7.17;3.40;;;;;;;15.03;84.34;100562.91;5114865;28;20512;-36
2021/07/31 04:50:14;;;;;;;8.63;3.70;;;;;;;15.02;84.39;100551.19;5115365;28;20032;-36
2021/07/31 04:52:40;;;;;;;7.28;4.00;;;;;;;14.98;84.24;100550.09;5114084;28;20453;-36
2021/07/31 04:55:06;;;;;;;9.85;4.25;;;;;;;15.00;84.58;100567.00;5114763;28;20102;-36
2021/07/31 04:57:31;;;;;;;11.10;4.10;;;;;;;15.03;84.19;100580.09;5114317;28;20024;-36
2021/07/31 04:59:56;;;;;;;9.20;4.43;;;;;;;15.00;85.13;100563.47;5114812;28;20095;-36
2021/07/31 05:02:22;;;;;;;10.88;4.32;;;;;;;15.07;84.50;100586.63;5115272;28;20432;-36
2021/07/31 05:04:47;;;;;;;7.78;4.88;;;;;;;15.04;85.07;100592.63;5114544;28;20058;-36
2021/07/31 05:07:12;;;;;;;10.37;5.10;;;;;;;15.05;85.12;100586.06;5114906;28;20324;-36
2021/07/31 05:09:38;;;;;;;14.25;5.28;;;;;;;15.16;85.41;100584.19;5114506;28;20026;-36
2021/07/31 05:12:04;;;;;;;8.52;4.07;;;;;;;15.25;84.71;100581.78;5114406;28;20030;-36
2021/07/31 05:14:29;;;;;;;7.13;4.25;;;;;;;15.36;83.91;100586.16;5114997;28;20012;-36
2021/07/31 05:16:55;;;;;;;6.70;3.88;;;;;;;15.36;83.82;100584.25;5114400;28;20023;-36
2021/07/31 05:19:20;;;;;;;10.17;5.03;;;;;;;15.37;84.25;100580.47;5114488;28;20105;-36
2021/07/31 05:21:45;;;;;;;8.17;4.77;;;;;;;15.46;83.11;100588.91;5114574;28;20023;-36
2021/07/31 05:24:11;;;;;;;10.18;4.93;;;;;;;15.52;83.54;100590.56;5114771;28;20265;-36
2021/07/31 05:26:37;;;;;;;8.18;4.78;;;;;;;15.53;82.58;100597.66;5114562;28;20023;-36
2021/07/31 05:29:04;;;;;;;10.65;5.13;;;;;;;15.40;82.92;100573.66;5114406;28;20120;-36
2021/07/31 05:31:29;;;;;;;8.48;4.50;;;;;;;15.58;82.83;100600.38;5114098;28;20047;-36
2021/07/31 05:33:54;;;;;;;8.68;5.18;;;;;;;15.60;82.82;100609.09;5114320;27;20447;-36
2021/07/31 05:36:20;;;;;;;6.90;4.60;;;;;;;15.51;83.14;100582.66;5114051;28;20027;-36
2021/07/31 05:38:45;;;;;;;8.60;4.83;;;;;;;15.60;82.92;100608.28;5114188;28;20273;-36
2021/07/31 05:41:19;;;;;;;8.18;4.95;;;;;;;15.60;82.48;100609.09;5114292;28;20042;-36
2021/07/31 05:43:45;;;;;;;12.63;5.53;;;;;;;15.56;82.60;100607.19;5113608;28;20045;-36
2021/07/31 05:46:17;;;;;;;7.97;4.50;;;;;;;15.55;82.51;100611.00;5114592;28;20024;-36
2021/07/31 05:48:43;;;;;;;10.85;5.72;;;;;;;15.54;83.51;100607.47;5113392;28;20077;-36
2021/07/31 05:51:12;;;;;;;10.20;5.47;;;;;;;15.43;83.09;100597.63;5114390;28;20028;-36
2021/07/31 05:53:37;;;;;;;9.48;4.90;;;;;;;15.53;83.22;100611.28;5113989;28;20016;-36
2021/07/31 05:56:06;;;;;;;10.63;4.70;;;;;;;15.54;83.54;100618.38;5113975;28;20071;-36
2021/07/31 05:58:32;;;;;;;8.85;5.05;;;;;;;15.49;83.48;100623.81;5113646;28;20301;-36
2021/07/31 06:00:57;;;;;;;9.63;4.93;;;;;;;15.41;83.54;100610.69;5113670;28;20031;-36
2021/07/31 06:03:22;;;;;;;7.93;4.93;;;;;;;15.49;83.90;100626.53;5113696;28;20027;-36
2021/07/31 06:05:48;;;;;;;8.93;5.67;;;;;;;15.44;84.18;100631.97;5113987;28;20270;-36
2021/07/31 06:08:13;;;;;;;9.45;4.72;;;;;;;15.49;83.81;100637.44;5113350;28;20026;-36
2021/07/31 06:10:38;;;;;;;10.70;6.13;;;;;;;15.34;84.91;100621.84;5113867;28;20023;-36
2021/07/31 06:13:05;;;;;;;9.80;6.07;;;;;;;15.30;85.14;100617.22;5113212;28;20606;-36
2021/07/31 06:15:30;;;;;;;10.73;6.40;;;;;;;15.31;85.61;100641.44;5113620;28;20063;-36
2021/07/31 06:17:55;;;;;;;9.15;6.38;;;;;;;15.30;85.75;100644.44;5113575;28;20027;-36
2021/07/31 06:20:21;;;;;;;7.13;5.97;;;;;;;15.05;86.42;100610.59;5113825;28;20023;-36
2021/07/31 06:22:46;;;;;;;14.93;6.77;;;;;;;15.27;86.75;100639.53;5113775;28;20031;-36
2021/07/31 06:25:11;;;;;;;11.83;7.33;;;;;;;15.15;87.13;100632.41;5113665;28;20270;-36
2021/07/31 06:27:37;;;;;;;12.73;7.43;;;;;;;15.23;87.60;100644.72;5113360;28;20076;-36
2021/07/31 06:30:02;;;;;;;8.00;7.07;;;;;;;15.27;87.91;100644.97;5111674;28;20269;-36
2021/07/31 06:32:28;;;;;;;14.65;8.32;;;;;;;15.22;87.85;100648.50;5113454;28;20072;-36
2021/07/31 06:34:53;;;;;;;14.70;8.33;;;;;;;15.19;87.89;100647.13;5113278;28;20023;-36
2021/07/31 06:37:18;;;;;;;15.63;8.27;;;;;;;15.18;87.89;100652.88;5113361;28;20257;-36
2021/07/31 06:39:44;;;;;;;10.63;6.70;;;;;;;15.09;87.69;100633.47;5113618;28;20024;-36
2021/07/31 06:42:10;;;;;;;13.07;7.38;;;;;;;15.12;88.48;100654.72;5113601;28;20062;-36
2021/07/31 06:44:35;;;;;;;7.53;6.45;;;;;;;15.07;87.94;100641.09;5113442;28;20020;-36
2021/07/31 06:47:00;;;;;;;12.03;7.23;;;;;;;15.11;88.38;100653.09;5113584;28;20454;-36
2021/07/31 06:49:26;;;;;;;11.65;6.88;;;;;;;15.05;88.33;100643.25;5113313;28;20019;-36
2021/07/31 06:51:52;;;;;;;10.17;6.87;;;;;;;15.07;88.01;100646.53;5112776;28;20379;-36
2021/07/31 06:54:18;;;;;;;11.32;6.88;;;;;;;15.08;88.40;100656.34;5113075;28;20028;-36
2021/07/31 06:56:43;;;;;;;12.00;6.90;;;;;;;15.04;88.70;100655.25;5113832;28;20098;-36
2021/07/31 06:59:09;;;;;;;13.17;7.37;;;;;;;15.03;87.40;100656.34;5113114;28;20070;-36
2021/07/31 07:01:34;;;;;;;13.18;7.57;;;;;;;15.12;87.44;100670.25;5116039;28;20020;-36
2021/07/31 07:03:59;;;;;;;11.75;6.95;;;;;;;15.10;88.12;100667.78;5116562;28;20055;-36
2021/07/31 07:06:25;;;;;;;10.60;7.80;;;;;;;15.15;87.81;100658.84;5117259;28;20076;-36
2021/07/31 07:08:50;;;;;;;13.75;7.30;;;;;;;15.29;87.53;100670.06;5117022;28;20024;-36
2021/07/31 07:11:18;;;;;;;10.63;7.53;;;;;;;15.31;87.12;100671.41;5117476;28;20044;-38
2021/07/31 07:13:43;;;;;;;13.13;7.28;;;;;;;15.31;86.66;100676.06;5116764;28;20031;-36
2021/07/31 07:16:09;;;;;;;11.57;7.20;;;;;;;15.32;88.08;100683.13;5116790;28;20118;-36
2021/07/31 07:18:34;;;;;;;11.55;6.85;;;;;;;15.32;87.67;100692.13;5116351;28;20042;-36
2021/07/31 07:21:08;;;;;;;7.63;6.82;;;;;;;15.33;87.57;100685.63;5116710;27;20035;-36
2021/07/31 07:23:34;;;;;;;11.20;6.60;;;;;;;15.30;87.94;100685.31;5117106;27;20100;-36
2021/07/31 07:25:59;;;;;;;11.82;7.25;;;;;;;15.24;88.04;100689.09;5117188;28;20447;-36
2021/07/31 07:28:25;;;;;;;11.73;7.10;;;;;;;15.32;87.52;100692.13;5116724;28;20152;-36
2021/07/31 07:30:51;;;;;;;7.93;6.55;;;;;;;15.31;88.25;100684.22;5117056;28;20023;-36
2021/07/31 07:33:16;;;;;;;8.32;6.10;;;;;;;15.45;87.69;100701.72;5114534;28;20075;-36
2021/07/31 07:35:41;;;;;;;9.73;6.20;;;;;;;15.48;87.38;100701.19;5115067;28;20027;-36
2021/07/31 07:38:07;;;;;;;9.90;6.22;;;;;;;15.49;87.39;100708.28;5114657;28;20281;-36
2021/07/31 07:40:32;;;;;;;10.00;5.93;;;;;;;15.42;87.41;100713.13;5116445;27;20046;-36
2021/07/31 07:42:57;;;;;;;9.07;6.78;;;;;;;15.45;87.36;100707.16;5115751;28;20055;-36
2021/07/31 07:45:23;;;;;;;13.23;6.53;;;;;;;15.49;86.98;100716.44;5116429;28;20126;-36
2021/07/31 07:47:48;;;;;;;8.48;6.20;;;;;;;15.53;87.29;100712.13;5116386;28;20411;-36
2021/07/31 07:50:13;;;;;;;12.00;6.82;;;;;;;15.57;86.91;100709.69;5116380;27;20084;-36
2021/07/31 07:52:39;;;;;;;10.93;6.00;;;;;;;15.61;85.73;100717.03;5115912;28;20022;-36
2021/07/31 07:55:05;;;;;;;11.75;6.82;;;;;;;15.66;86.98;100716.25;5115685;28;20107;-36
2021/07/31 07:57:30;;;;;;;11.10;6.78;;;;;;;15.56;86.15;100687.03;5115926;27;20031;-36
2021/07/31 07:59:55;;;;;;;10.07;6.30;;;;;;;15.84;85.76;100720.41;5115747;28;20023;-36
2021/07/31 08:02:21;;;;;;;11.87;6.43;;;;;;;15.98;84.74;100709.81;5116130;28;20027;-36
2021/07/31 08:04:46;;;;;;;9.20;6.80;;;;;;;16.14;85.54;100719.66;5115692;28;20269;-36
2021/07/31 08:07:12;;;;;;;;;;;;;;;16.28;85.18;100715.28;5116352;28;20451;-36
2021/07/31 08:09:38;;;;;;;11.32;6.85;;;;;;;16.41;84.48;100717.50;5115589;28;19907;-36
2021/07/31 08:12:05;;;;;;;9.63;7.18;;;;;;;16.56;84.58;100724.03;5115514;28;20453;-36
2021/07/31 08:14:31;;;;;;;10.15;6.10;;;;;;;16.64;82.83;100718.84;5115633;28;20054;-36
2021/07/31 08:16:57;;;;;;;11.32;6.45;;;;;;;16.65;82.39;100725.94;5116572;28;20055;-36
2021/07/31 08:19:22;;;;;;;;;;;;;;;16.76;82.01;100720.50;5116219;28;20027;-36
2021/07/31 08:21:47;;;;;;;9.40;6.05;;;;;;;16.67;82.95;100703.81;5115816;28;20416;-36
2021/07/31 08:24:12;;;;;;;;;;;;;;;16.89;81.75;100726.22;5115574;28;20032;-36
2021/07/31 08:26:38;;;;;;;8.30;5.23;;;;;;;16.95;79.72;100707.91;5115684;28;19915;-36
2021/07/31 08:29:03;;;;;;;;;;;;;;;17.17;80.36;100722.03;5115761;28;20077;-36
2021/07/31 08:31:28;;;;;;;6.50;5.00;;;;;;;17.24;76.17;100706.19;5115758;28;19930;-36
2021/07/31 08:33:54;;;;;;;;;;;;;;;17.42;77.98;100712.13;5115323;28;20459;-36
2021/07/31 08:36:19;;;;;;;8.50;5.22;;;;;;;17.35;77.60;100717.88;5115130;28;19903;-36
2021/07/31 08:38:44;;;;;;;7.20;3.95;;;;;;;17.35;77.23;100723.34;5114949;28;20371;-36
2021/07/31 08:41:10;;;;;;;8.60;4.50;;;;;;;17.36;76.99;100724.16;5115684;28;20027;-36
2021/07/31 08:43:35;;;;;;;6.45;4.10;;;;;;;17.33;77.41;100730.22;5115021;28;20122;-36
2021/07/31 08:46:10;;;;;;;5.95;4.00;;;;;;;17.22;76.84;100724.75;5115626;28;20440;-36
2021/07/31 08:48:37;;;;;;;12.02;4.25;;;;;;;17.22;76.46;100727.50;5114967;28;20023;-36
2021/07/31 08:51:03;;;;;;;6.88;3.97;;;;;;;17.24;76.45;100733.50;5114933;28;20103;-36
2021/07/31 08:53:30;;;;;;;9.00;3.85;;;;;;;17.22;76.62;100735.69;5114971;28;20102;-36
2021/07/31 08:55:56;;;;;;;7.38;3.90;;;;;;;17.09;77.91;100719.91;5115143;28;20042;-36
2021/07/31 08:58:25;;;;;;;7.43;4.18;;;;;;;17.24;76.90;100741.72;5114776;28;20405;-36
2021/07/31 09:00:51;;;;;;;4.72;3.20;;;;;;;17.19;77.05;100735.44;5114868;28;20023;-36
2021/07/31 09:03:17;;;;;;;6.95;4.47;;;;;;;17.22;76.56;100748.53;5114724;28;20030;-36
2021/07/31 09:05:43;;;;;;;10.82;3.72;;;;;;;17.24;76.10;100746.34;5115492;28;20027;-36
2021/07/31 09:08:09;;;;;;;;;;;;;;;17.34;76.77;100748.25;5114614;28;20405;-36
2021/07/31 09:10:37;;;;;;;8.27;3.60;;;;;;;17.25;76.24;100737.06;5115112;28;20308;-36
2021/07/31 09:13:05;;;;;;;7.65;4.10;;;;;;;17.29;76.56;100745.53;5114382;28;20185;-36
2021/07/31 09:15:34;;;;;;;7.35;3.25;;;;;;;17.62;76.33;100749.50;5114239;28;20055;-36
2021/07/31 09:18:33;;;;;;;5.45;2.80;;;;;;;17.91;74.98;100755.13;5114201;28;20027;-36
2021/07/31 09:21:13;;;;;;;7.55;3.50;;;;;;;18.09;73.88;100754.47;5114897;28;20341;-36
2021/07/31 09:23:45;;;;;;;6.47;2.85;;;;;;;18.02;72.17;100759.44;5113600;28;20038;-36
2021/07/31 09:26:13;;;;;;;11.75;3.33;;;;;;;18.07;73.07;100753.13;5115023;28;20100;-36
2021/07/31 09:28:42;;;;;;;6.65;2.60;;;;;;;18.32;71.80;100750.22;5113914;28;20372;-36
2021/07/31 09:31:20;;;;;;;7.63;3.20;;;;;;;18.56;71.97;100742.09;5114332;28;20034;-36
2021/07/31 09:33:47;;;;;;;6.55;3.25;;;;;;;18.87;70.71;100759.09;5114334;28;20030;-36
2021/07/31 09:36:13;;;;;;;6.50;2.97;;;;;;;18.71;69.58;100743.91;5114606;28;20066;-36
2021/07/31 09:38:44;;;;;;;;;;;;;;;18.98;71.09;100759.81;5113403;27;20400;-36
2021/07/31 09:41:51;;;;;;;5.60;2.35;;;;;;;18.87;69.97;100772.78;5114056;28;20365;-36
2021/07/31 09:44:17;;;;;;;3.23;2.43;;;;;;;18.66;68.55;100772.13;5071500;28;20028;-36
2021/07/31 09:46:48;;;;;;;4.00;2.60;;;;;;;18.54;69.57;100774.41;5071227;28;20701;-36
2021/07/31 09:49:16;;;;;;;4.20;2.47;;;;;;;18.35;69.45;100773.44;5071352;28;20101;-36
2021/07/31 09:51:46;;;;;;;6.78;3.00;;;;;;;18.33;68.94;100775.66;5071414;28;20032;-36
2021/07/31 09:54:15;;;;;;;3.28;1.88;;;;;;;18.16;70.43;100762.38;5070824;28;20032;-36
2021/07/31 09:56:43;;;;;;;7.07;2.83;;;;;;;18.14;70.29;100762.66;5071002;28;20028;-36
2021/07/31 09:59:10;;;;;;;4.70;2.50;;;;;;;18.13;70.77;100777.44;5071067;28;20020;-36
2021/07/31 10:01:40;;;;;;;6.47;3.05;;;;;;;18.18;71.05;100801.22;5071229;28;20178;-36
2021/07/31 10:04:06;;;;;;;4.88;2.65;;;;;;;18.04;71.61;100778.31;5070726;28;20329;-36
2021/07/31 10:06:32;;;;;;;;;;;;;;;18.28;71.45;100807.44;5071226;28;20025;-36
2021/07/31 10:09:01;;;;;;;4.95;2.60;;;;;;;18.17;71.57;100794.94;5070868;28;19976;-36
2021/07/31 10:11:27;;;;;;;4.63;2.42;;;;;;;18.17;71.61;100792.19;5070702;28;20028;-36
2021/07/31 10:13:54;;;;;;;;;;;;;;;18.32;71.10;100801.41;5074330;28;20111;-36
2021/07/31 10:16:19;;;;;;;6.07;2.43;;;;;;;18.20;70.82;100794.38;5114012;28;20328;-36
2021/07/31 10:19:03;;;;;;;4.43;2.42;;;;;;;18.50;71.46;100795.28;5113849;28;20023;-36
2021/07/31 10:21:32;;;;;;;4.60;2.80;;;;;;;18.44;69.72;100766.28;5114313;28;20076;-36
2021/07/31 10:24:06;;;;;;;2.90;2.28;;;;;;;18.83;69.65;100817.50;5113702;28;20023;-36
2021/07/31 10:26:34;;;;;;;4.53;2.45;;;;;;;18.81;69.49;100797.78;5114004;28;20069;-36
2021/07/31 10:29:27;;;;;;;4.28;2.65;;;;;;;18.93;70.01;100804.50;5113661;28;20367;-36
2021/07/31 10:31:54;;;;;;;5.47;2.20;;;;;;;19.00;69.68;100810.50;5113940;28;20505;-36
2021/07/31 10:34:53;;;;;;;5.18;2.17;;;;;;;19.04;69.31;100814.28;5114457;28;20020;-36
2021/07/31 10:37:28;;;;;;;3.90;1.83;;;;;;;18.98;69.65;100814.63;5117411;28;20106;-36
2021/07/31 10:39:54;;;;;;;2.92;1.50;;;;;;;18.92;70.01;100826.72;5117391;28;20064;-36
2021/07/31 10:42:19;;;;;;;4.43;1.60;;;;;;;18.85;69.28;100831.72;5117660;28;20063;-36
2021/07/31 10:45:23;;;;;;;;;;;;;;;19.00;69.20;100834.34;5118275;28;20086;-36
2021/07/31 10:47:51;;;;;;;2.35;1.50;;;;;;;18.83;69.61;100822.97;5074916;28;20344;-36
2021/07/31 10:50:22;;;;;;;2.45;2.00;;;;;;;18.78;70.78;100816.41;5074207;28;20044;-36
2021/07/31 10:52:56;;;;;;;5.00;2.30;;;;;;;18.93;71.33;100829.16;5074457;28;20078;-36
2021/07/31 10:55:37;;;;;;;3.58;2.78;;;;;;;18.90;72.19;100829.75;5074304;28;20064;-36
2021/07/31 10:58:08;;;;;;;5.20;3.20;;;;;;;19.01;71.41;100833.22;5074105;28;20032;-36
2021/07/31 11:01:13;;;;;;;6.10;3.88;;;;;;;18.90;72.18;100839.91;5074020;28;20103;-36
2021/07/31 11:03:40;;;;;;;4.53;3.30;;;;;;;18.59;75.26;100844.75;5074237;28;20072;-36
2021/07/31 11:06:06;;;;;;;5.63;4.10;;;;;;;18.33;76.57;100853.13;5074724;28;20024;-36
2021/07/31 11:08:31;;;;;;;;;;;;;;;18.43;75.21;100858.53;5074921;28;20139;-36
2021/07/31 11:10:58;;;;;;;6.93;4.27;;;;;;;17.96;78.83;100854.41;5074123;28;20380;-36
2021/07/31 11:13:23;;;;;;;8.43;4.53;;;;;;;17.77;80.57;100856.13;5073704;28;20322;-36
2021/07/31 11:16:04;;;;;;;4.77;4.13;;;;;;;17.75;79.79;100859.13;5074164;28;20461;-36
2021/07/31 11:18:32;;;;;;;4.70;4.05;;;;;;;17.66;82.08;100844.34;5073686;28;20029;-36
2021/07/31 11:21:08;;;;;;;4.43;4.00;;;;;;;17.85;82.25;100846.50;5073843;28;20024;-36
2021/07/31 11:23:59;;;;;;;4.43;4.03;;;;;;;17.97;81.81;100849.75;5100391;28;20119;-36
2021/07/31 11:26:33;;;;;;;7.00;4.10;;;;;;;18.15;80.78;100857.31;5117765;28;20126;-36